Skagway, AK

8:42 AM AKDT on July 29, 2016 (GMT -0800)
Skagway | | Change Station

Elev 16 ft 59.46 °N, 135.32 °W | Updated 49 minutes ago

Overcast
Overcast
58 °F
Feels Like 58 °F
N
20
Wind Variable Wind from SSW
Gusts 28 mph

Today
High -- | Low -- °F
--% Chance of Precip.
Yesterday
High -- | Low -- °F
Precip. -- in
Pressure 30.10 in
Visibility 10.0 miles
Clouds Mostly Cloudy 6000 ft
Overcast 8500 ft
Dew Point 51 °F
Humidity 78%
Rainfall 0.00 in
Snow Depth Not available.
4:40 AM 9:33 PM
Waning Crescent, 21% visible
METAR PAGY 291553Z AUTO 20017G24KT 10SM BKN060 OVC085 14/11 A3010 RMK AO2 PK WND 21026/1456 RAB40E49 SLP193 P0000 T01440106 TSNO
Pressure 30.10 in
Visibility 10.0 miles
Clouds Mostly Cloudy 6000 ft
Overcast 8500 ft
Dew Point 51 °F
Humidity 78%
Rainfall 0.00 in
Snow Depth Not available.
4:40 AM 9:33 PM
Waning Crescent, 21% visible
METAR PAGY 291553Z AUTO 20017G24KT 10SM BKN060 OVC085 14/11 A3010 RMK AO2 PK WND 21026/1456 RAB40E49 SLP193 P0000 T01440106 TSNO

10-Day Weather Forecast

Almanac

Astronomy

Jul. 29, 2016 Rise Set
Actual Time
Civil Twilight
Nautical Twilight
Astronomical Twilight
Moon
Length of Visible Light
Length of Day
Tomorrow will be .
, % of the Moon is Illuminated

Today's Extremes

State Highs State Lows

Community

WunderPhotos

Upload Photos

1,928,378 photos uploaded!

WunderBlog® & News

Nearby

Air Quality

  Air Quality AQ Index Pollutant
Not available.

Snow Depth

Station Depth Elevation

Earthquake Activity

City Distance Mag. Time & Date
Minimum magnitude displayed is 2.5.

Coastal Water Temperatures

Place Temperature

Stations

Nearby Weather Stations

Station Location Temp. Windchill Dew Point Humidity Wind Precip. Elev Updated Type
                   

Watches & Warnings

There are currently no watches in effect.